createdAt,value
2023-04-10T00:02:05.819Z,100431.91
2023-04-10T00:04:34.967Z,100433.16
2023-04-10T00:07:03.248Z,100426.13
2023-04-10T00:09:31.271Z,100427.84
2023-04-10T00:12:00.297Z,100429.06
2023-04-10T00:14:28.830Z,100426.78
2023-04-10T00:16:56.813Z,100432.00
2023-04-10T00:19:25.470Z,100432.19
2023-04-10T00:21:54.444Z,100426.22
2023-04-10T00:24:22.618Z,100427.16
2023-04-10T00:26:51.254Z,100427.16
2023-04-10T00:29:20.510Z,100425.00
2023-04-10T00:31:49.186Z,100422.53
2023-04-10T00:34:22.304Z,100424.03
2023-04-10T00:36:51.589Z,100427.84
2023-04-10T00:39:22.217Z,100423.84
2023-04-10T00:41:53.181Z,100430.13
2023-04-10T00:44:22.220Z,100430.41
2023-04-10T00:46:52.448Z,100427.38
2023-04-10T00:49:19.979Z,100427.38
2023-04-10T00:51:48.064Z,100428.44
2023-04-10T00:54:19.397Z,100425.69
2023-04-10T00:56:53.160Z,100425.38
2023-04-10T00:59:23.595Z,100422.34
2023-04-10T01:01:52.140Z,100427.06
2023-04-10T01:04:22.202Z,100428.03
2023-04-10T01:07:06.715Z,100422.25
2023-04-10T01:09:54.665Z,100423.66
2023-04-10T01:12:41.337Z,100425.34
2023-04-10T01:15:15.287Z,100425.34
2023-04-10T01:18:01.182Z,100428.41
2023-04-10T01:20:31.791Z,100429.34
2023-04-10T01:23:00.168Z,100421.09
2023-04-10T01:25:38.768Z,100433.31
2023-04-10T01:28:26.802Z,100423.56
2023-04-10T01:31:01.072Z,100431.81
2023-04-10T01:33:38.638Z,100424.47
2023-04-10T01:36:07.235Z,100424.78
2023-04-10T01:38:36.425Z,100428.00
2023-04-10T01:41:04.430Z,100428.94
2023-04-10T01:43:36.422Z,100428.19
2023-04-10T01:46:07.108Z,100429.72
2023-04-10T01:48:36.369Z,100428.94
2023-04-10T01:51:08.766Z,100432.66
2023-04-10T01:53:40.594Z,100426.38
2023-04-10T01:56:10.330Z,100425.31
2023-04-10T01:58:46.294Z,100418.31
2023-04-10T02:01:29.559Z,100421.53
2023-04-10T02:04:01.132Z,100428.53
2023-04-10T02:06:37.940Z,100428.06
2023-04-10T02:09:11.228Z,100430.72
2023-04-10T02:12:00.424Z,100427.97
2023-04-10T02:14:33.135Z,100427.22
2023-04-10T02:17:04.530Z,100429.97
2023-04-10T02:19:36.012Z,100433.19
2023-04-10T02:22:04.663Z,100421.13
2023-04-10T02:24:35.088Z,100427.41
2023-04-10T02:27:04.562Z,100420.84
2023-04-10T02:29:33.537Z,100425.13
2023-04-10T02:32:07.162Z,100416.75
2023-04-10T02:34:39.260Z,100422.25
2023-04-10T02:37:09.141Z,100419.97
2023-04-10T02:39:45.293Z,100425.19
2023-04-10T02:42:14.732Z,100415.41
2023-04-10T02:44:49.112Z,100416.94
2023-04-10T02:47:16.735Z,100425.19
2023-04-10T02:49:50.906Z,100417.41
2023-04-10T02:52:19.463Z,100424.13
2023-04-10T02:54:49.632Z,100423.09
2023-04-10T02:57:20.840Z,100423.81
2023-04-10T02:59:51.605Z,100415.59
2023-04-10T03:02:23.006Z,100423.56
2023-04-10T03:04:53.774Z,100425.06
2023-04-10T03:07:29.731Z,100426.50
2023-04-10T03:09:59.878Z,100419.16
2023-04-10T03:12:28.225Z,100421.47
2023-04-10T03:14:59.545Z,100420.41
2023-04-10T03:17:28.455Z,100419.34
2023-04-10T03:19:58.301Z,100422.84
2023-04-10T03:22:34.078Z,100424.09
2023-04-10T03:25:01.856Z,100421.06
2023-04-10T03:27:32.517Z,100418.78
2023-04-10T03:30:03.309Z,100407.50
2023-04-10T03:32:39.162Z,100418.66
2023-04-10T03:35:08.802Z,100420.81
2023-04-10T03:37:36.591Z,100420.97
2023-04-10T03:40:08.181Z,100421.94
2023-04-10T03:42:36.976Z,100417.06
2023-04-10T03:45:12.689Z,100416.00
2023-04-10T03:47:44.235Z,100412.22
2023-04-10T03:50:17.331Z,100409.34
2023-04-10T03:52:55.594Z,100404.03
2023-04-10T03:55:26.117Z,100412.91
2023-04-10T03:57:55.018Z,100411.44
2023-04-10T04:00:25.253Z,100412.19
2023-04-10T04:03:05.047Z,100415.09
2023-04-10T04:06:06.425Z,100416.19
2023-04-10T04:09:01.425Z,100419.25
2023-04-10T04:11:47.390Z,100419.25
2023-04-10T04:14:36.343Z,100421.34
2023-04-10T04:17:23.520Z,100427.16
2023-04-10T04:20:12.922Z,100437.19
2023-04-10T04:22:44.930Z,100433.22
2023-04-10T04:25:32.152Z,100432.47
2023-04-10T04:28:21.156Z,100439.00
2023-04-10T04:31:02.855Z,100434.56
2023-04-10T04:33:48.941Z,100435.44
2023-04-10T04:36:54.310Z,100436.63
2023-04-10T04:39:41.596Z,100445.00
2023-04-10T04:42:33.765Z,100447.09
2023-04-10T04:45:16.264Z,100451.50
2023-04-10T04:48:14.202Z,100445.81
2023-04-10T04:50:57.192Z,100445.06
2023-04-10T04:53:45.782Z,100449.16
2023-04-10T04:56:37.605Z,100439.69
2023-04-10T04:59:25.402Z,100450.50
2023-04-10T05:02:26.633Z,100439.97
2023-04-10T05:05:18.142Z,100449.69
2023-04-10T05:08:01.198Z,100457.44
2023-04-10T05:11:06.919Z,100457.34
2023-04-10T05:14:02.488Z,100459.59
2023-04-10T05:16:48.287Z,100460.16
2023-04-10T05:19:32.503Z,100463.97
2023-04-10T05:22:25.284Z,100473.34
2023-04-10T05:25:08.169Z,100474.19
2023-04-10T05:28:03.969Z,100480.72
2023-04-10T05:30:52.257Z,100486.63
2023-04-10T05:33:40.679Z,100493.00
2023-04-10T05:36:13.449Z,100494.41
2023-04-10T05:39:01.523Z,100496.19
2023-04-10T05:41:46.946Z,100495.63
2023-04-10T05:44:23.659Z,100493.16
2023-04-10T05:47:02.654Z,100499.66
2023-04-10T05:49:41.153Z,100505.72
2023-04-10T05:52:30.151Z,100504.53
2023-04-10T05:55:16.510Z,100508.59
2023-04-10T05:58:13.548Z,100513.16
2023-04-10T06:01:05.262Z,100518.50
2023-04-10T06:03:53.329Z,100516.91
2023-04-10T06:06:22.592Z,100519.25
2023-04-10T06:08:51.073Z,100513.94
2023-04-10T06:11:19.069Z,100516.69
2023-04-10T06:13:55.464Z,100521.19
2023-04-10T06:16:30.934Z,100520.69
2023-04-10T06:18:59.268Z,100522.91
2023-04-10T06:21:31.995Z,100530.28
2023-04-10T06:24:02.738Z,100534.41
2023-04-10T06:26:32.705Z,100531.50
2023-04-10T06:29:03.376Z,100539.88
2023-04-10T06:31:33.179Z,100538.19
2023-04-10T06:34:03.352Z,100526.81
2023-04-10T06:36:31.778Z,100525.16
2023-04-10T06:39:08.620Z,100525.91
2023-04-10T06:41:37.210Z,100530.91
2023-04-10T06:44:22.500Z,100534.63
2023-04-10T06:46:49.730Z,100531.66
2023-04-10T06:49:24.475Z,100540.66
2023-04-10T06:51:52.183Z,100538.69
2023-04-10T06:54:20.647Z,100551.25
2023-04-10T06:56:50.487Z,100549.78
2023-04-10T06:59:18.858Z,100558.03
2023-04-10T07:01:45.831Z,100559.72
2023-04-10T07:04:15.678Z,100559.38
2023-04-10T07:06:43.605Z,100566.25
2023-04-10T07:09:11.677Z,100553.78
2023-04-10T07:11:39.256Z,100557.38
2023-04-10T07:14:15.274Z,100565.38
2023-04-10T07:16:43.813Z,100566.75
2023-04-10T07:19:14.080Z,100572.38
2023-04-10T07:21:41.184Z,100577.13
2023-04-10T07:24:08.602Z,100579.94
2023-04-10T07:26:36.467Z,100584.06
2023-04-10T07:29:08.100Z,100582.50
2023-04-10T07:31:35.559Z,100586.38
2023-04-10T07:34:03.414Z,100586.59
2023-04-10T07:36:34.372Z,100588.44
2023-04-10T07:39:03.726Z,100597.00
2023-04-10T07:41:31.013Z,100592.53
2023-04-10T07:43:58.757Z,100587.88
2023-04-10T07:46:27.635Z,100585.66
2023-04-10T07:48:57.844Z,100574.25
2023-04-10T07:51:26.156Z,100588.78
2023-04-10T07:53:54.028Z,100593.88
2023-04-10T07:56:23.839Z,100585.75
2023-04-10T07:58:53.370Z,100596.78
2023-04-10T08:01:23.565Z,100599.16
2023-04-10T08:03:50.939Z,100601.69
2023-04-10T08:06:18.512Z,100605.06
2023-04-10T08:08:46.925Z,100602.00
2023-04-10T08:11:30.520Z,100606.72
2023-04-10T08:14:05.549Z,100606.69
2023-04-10T08:16:34.402Z,100618.47
2023-04-10T08:19:09.072Z,100611.94
2023-04-10T08:21:40.467Z,100607.69
2023-04-10T08:24:13.158Z,100607.22
2023-04-10T08:26:45.477Z,100609.22
2023-04-10T08:29:14.520Z,100602.78
2023-04-10T08:31:43.779Z,100599.06
2023-04-10T08:34:14.465Z,100600.47
2023-04-10T08:36:43.791Z,100608.06
2023-04-10T08:39:11.324Z,100605.56
2023-04-10T08:41:41.148Z,100609.91
2023-04-10T08:44:15.066Z,100600.56
2023-04-10T08:46:45.302Z,100597.31
2023-04-10T08:49:21.493Z,100586.31
2023-04-10T08:51:58.122Z,100574.44
2023-04-10T08:54:28.807Z,100579.75
2023-04-10T08:56:57.266Z,100569.25
2023-04-10T08:59:33.455Z,100570.16
2023-04-10T09:02:05.954Z,100550.97
2023-04-10T09:04:38.034Z,100553.03
2023-04-10T09:07:07.839Z,100538.41
2023-04-10T09:09:36.966Z,100541.19
2023-04-10T09:12:04.755Z,100547.16
2023-04-10T09:14:36.606Z,100548.44
2023-04-10T09:17:26.471Z,100548.31
2023-04-10T09:19:55.139Z,100533.50
2023-04-10T09:22:37.717Z,100531.44
2023-04-10T09:25:05.659Z,100542.84
2023-04-10T09:27:38.688Z,100541.97
2023-04-10T09:30:08.811Z,100532.00
2023-04-10T09:32:43.612Z,100536.84
2023-04-10T09:35:12.025Z,100528.56
2023-04-10T09:37:41.880Z,100523.25
2023-04-10T09:40:27.025Z,100518.88
2023-04-10T09:42:56.045Z,100518.31
2023-04-10T09:45:23.775Z,100511.94
2023-04-10T09:48:10.569Z,100518.75
2023-04-10T09:50:45.920Z,100511.31
2023-04-10T09:53:14.133Z,100507.72
2023-04-10T09:55:42.399Z,100500.94
2023-04-10T09:58:11.758Z,100497.19
2023-04-10T10:00:44.503Z,100499.47
2023-04-10T10:03:16.046Z,100494.72
2023-04-10T10:05:45.352Z,100491.38
2023-04-10T10:08:16.774Z,100490.63
2023-04-10T10:10:54.910Z,100493.09
2023-04-10T10:13:30.026Z,100483.31
2023-04-10T10:16:12.099Z,100478.50
2023-04-10T10:18:59.457Z,100467.28
2023-04-10T10:21:30.945Z,100468.28
2023-04-10T10:24:00.863Z,100464.25
2023-04-10T10:26:35.148Z,100458.06
2023-04-10T10:29:07.202Z,100453.78
2023-04-10T10:31:40.253Z,100455.59
2023-04-10T10:34:11.440Z,100457.75
2023-04-10T10:36:47.438Z,100463.25
2023-04-10T10:39:15.957Z,100450.31
2023-04-10T10:42:02.287Z,100450.97
2023-04-10T10:44:35.166Z,100441.84
2023-04-10T10:47:30.427Z,100435.28
2023-04-10T10:50:02.452Z,100435.88
2023-04-10T10:52:38.955Z,100428.13
2023-04-10T10:55:23.213Z,100425.44
2023-04-10T10:57:52.454Z,100418.56
2023-04-10T11:00:21.961Z,100414.06
2023-04-10T11:03:08.227Z,100416.19
2023-04-10T11:05:56.478Z,100417.47
2023-04-10T11:08:49.174Z,100405.66
2023-04-10T11:11:20.292Z,100405.25
2023-04-10T11:13:55.649Z,100403.09
2023-04-10T11:16:34.263Z,100397.28
2023-04-10T11:19:15.434Z,100399.94
2023-04-10T11:22:04.800Z,100394.88
2023-04-10T11:24:51.940Z,100393.56
2023-04-10T11:27:37.495Z,100395.81
2023-04-10T11:30:30.967Z,100376.75
2023-04-10T11:33:00.576Z,100373.13
2023-04-10T11:35:31.620Z,100373.88
2023-04-10T11:38:13.258Z,100368.59
2023-04-10T11:40:58.955Z,100365.44
2023-04-10T11:43:26.910Z,100363.56
2023-04-10T11:49:58.776Z,100358.88
2023-04-10T11:52:26.546Z,100357.19
2023-04-10T11:54:56.967Z,100357.81
2023-04-10T11:57:26.973Z,100346.63
2023-04-10T11:59:59.656Z,100343.78
2023-04-10T12:02:30.675Z,100340.31
2023-04-10T12:05:04.774Z,100336.47
2023-04-10T12:07:36.160Z,100332.66
2023-04-10T12:10:04.277Z,100341.91
2023-04-10T12:12:38.495Z,100335.22
2023-04-10T12:15:27.506Z,100337.91
2023-04-10T12:17:55.781Z,100326.38
2023-04-10T12:20:27.208Z,100325.28
2023-04-10T12:22:57.394Z,100325.63
2023-04-10T12:25:25.933Z,100327.03
2023-04-10T12:27:57.496Z,100324.75
2023-04-10T12:30:26.412Z,100328.09
2023-04-10T12:32:56.997Z,100319.63
2023-04-10T12:35:43.030Z,100314.50
2023-04-10T12:38:14.295Z,100309.16
2023-04-10T12:41:05.197Z,100305.16
2023-04-10T12:43:34.526Z,100298.47
2023-04-10T12:46:03.127Z,100294.94
2023-04-10T12:48:30.742Z,100291.06
2023-04-10T12:50:58.403Z,100287.25
2023-04-10T12:53:28.639Z,100292.50
2023-04-10T12:55:58.297Z,100281.38
2023-04-10T12:58:31.435Z,100274.47
2023-04-10T13:01:07.768Z,100281.63
2023-04-10T13:03:38.268Z,100264.69
2023-04-10T13:06:11.027Z,100267.22
2023-04-10T13:08:41.560Z,100267.69
2023-04-10T13:11:09.256Z,100263.66
2023-04-10T13:13:36.339Z,100258.28
2023-04-10T13:16:04.558Z,100263.03
2023-04-10T13:18:38.192Z,100257.81
2023-04-10T13:21:08.085Z,100252.50
2023-04-10T13:23:39.465Z,100247.03
2023-04-10T13:26:08.122Z,100249.22
2023-04-10T13:28:36.362Z,100243.97
2023-04-10T13:31:05.370Z,100235.59
2023-04-10T13:33:36.273Z,100228.69
2023-04-10T13:36:07.333Z,100231.00
2023-04-10T13:38:34.875Z,100231.03
2023-04-10T13:41:02.519Z,100231.31
2023-04-10T13:43:33.255Z,100226.72
2023-04-10T13:46:01.861Z,100230.00
2023-04-10T13:48:40.047Z,100228.84
2023-04-10T13:51:21.435Z,100218.41
2023-04-10T13:53:49.629Z,100224.03
2023-04-10T13:56:17.216Z,100220.78
2023-04-10T13:58:49.128Z,100211.25
2023-04-10T14:01:17.661Z,100212.69
2023-04-10T14:03:50.589Z,100193.63
2023-04-10T14:06:21.418Z,100194.69
2023-04-10T14:08:51.903Z,100194.28
2023-04-10T14:11:22.943Z,100184.19
2023-04-10T14:13:53.505Z,100180.13
2023-04-10T14:16:22.492Z,100188.69
2023-04-10T14:18:52.648Z,100185.69
2023-04-10T14:21:22.220Z,100175.31
2023-04-10T14:23:49.522Z,100181.09
2023-04-10T14:26:17.150Z,100178.06
2023-04-10T14:28:45.717Z,100169.69
2023-04-10T14:31:27.776Z,100175.19
2023-04-10T14:33:59.326Z,100170.88
2023-04-10T14:36:30.110Z,100159.38
2023-04-10T14:39:01.479Z,100155.56
2023-04-10T14:41:30.585Z,100156.59
2023-04-10T14:43:58.543Z,100155.75
2023-04-10T14:46:26.312Z,100150.94
2023-04-10T14:48:53.473Z,100152.72
2023-04-10T14:51:22.047Z,100149.72
2023-04-10T14:53:52.942Z,100146.22
2023-04-10T14:56:25.554Z,100150.19
2023-04-10T14:58:55.060Z,100147.38
2023-04-10T15:01:24.456Z,100135.69
2023-04-10T15:03:55.663Z,100144.25
2023-04-10T15:06:25.207Z,100143.59
2023-04-10T15:08:52.328Z,100147.53
2023-04-10T15:11:48.367Z,100139.00
2023-04-10T15:14:15.501Z,100137.09
2023-04-10T15:16:45.174Z,100131.22
2023-04-10T15:19:15.712Z,100126.19
2023-04-10T15:26:37.606Z,100121.22
2023-04-10T15:37:57.550Z,100106.19
2023-04-10T15:40:30.446Z,100097.72
2023-04-10T15:43:04.124Z,100102.31
2023-04-10T15:45:32.858Z,100091.31
2023-04-10T15:48:03.159Z,100089.03
2023-04-10T15:50:33.313Z,100084.88
2023-04-10T15:53:05.809Z,100084.34
2023-04-10T15:55:33.308Z,100085.31
2023-04-10T15:58:03.314Z,100078.56
2023-04-10T16:00:31.171Z,100071.38
2023-04-10T16:03:02.393Z,100069.66
2023-04-10T16:05:31.517Z,100067.22
2023-04-10T16:08:04.127Z,100068.28
2023-04-10T16:10:33.096Z,100057.47
2023-04-10T16:13:05.535Z,100059.50
2023-04-10T16:15:37.210Z,100053.69
2023-04-10T16:18:08.063Z,100044.28
2023-04-10T16:20:36.462Z,100038.28
2023-04-10T16:23:06.792Z,100041.28
2023-04-10T16:25:35.552Z,100034.53
2023-04-10T16:28:08.114Z,100036.44
2023-04-10T16:30:39.771Z,100039.53
2023-04-10T16:33:07.367Z,100042.06
2023-04-10T16:35:35.525Z,100037.13
2023-04-10T16:38:10.129Z,100023.09
2023-04-10T16:40:43.248Z,100032.50
2023-04-10T16:43:15.735Z,100028.41
2023-04-10T16:45:47.836Z,100016.72
2023-04-10T16:48:16.789Z,100019.44
2023-04-10T16:50:47.128Z,100014.28
2023-04-10T16:53:17.792Z,100012.78
2023-04-10T16:55:48.146Z,100013.09
2023-04-10T16:58:26.606Z,100011.59
2023-04-10T17:00:55.081Z,100014.47
2023-04-10T17:03:24.335Z,100016.34
2023-04-10T17:05:52.634Z,100011.69
2023-04-10T17:08:23.581Z,100012.28
2023-04-10T17:10:53.453Z,100009.91
2023-04-10T17:13:21.382Z,100010.03
2023-04-10T17:15:48.649Z,100002.66
2023-04-10T17:18:18.117Z,100001.50
2023-04-10T17:20:48.595Z,100002.84
2023-04-10T17:23:17.494Z,100011.06
2023-04-10T17:25:45.498Z,100012.50
2023-04-10T17:28:16.705Z,100010.38
2023-04-10T17:30:49.431Z,100001.94
2023-04-10T17:33:23.680Z,100007.81
2023-04-10T17:35:53.452Z,100005.91
2023-04-10T17:38:26.056Z,100002.47
2023-04-10T17:40:53.605Z,100002.06
2023-04-10T17:43:24.986Z,99996.38
2023-04-10T17:45:52.252Z,99999.44
2023-04-10T17:48:22.950Z,100000.03
2023-04-10T17:50:52.623Z,100000.28
2023-04-10T17:53:29.755Z,99999.91
2023-04-10T17:55:57.048Z,99998.44
2023-04-10T17:58:24.800Z,100004.03
2023-04-10T18:00:55.996Z,99997.53
2023-04-10T18:03:23.807Z,99999.56
2023-04-10T18:05:56.160Z,99999.09
2023-04-10T18:08:35.212Z,99989.03
2023-04-10T18:11:08.705Z,99995.34
2023-04-10T18:13:36.497Z,99991.84
2023-04-10T18:16:05.713Z,99988.84
2023-04-10T18:18:35.060Z,99988.59
2023-04-10T18:21:05.278Z,99988.34
2023-04-10T18:23:33.852Z,99986.38
2023-04-10T18:26:04.492Z,99983.66
2023-04-10T18:28:32.181Z,99984.69
2023-04-10T18:31:03.155Z,99984.94
2023-04-10T18:33:31.577Z,99982.44
2023-04-10T18:36:01.354Z,99990.97
2023-04-10T18:38:32.310Z,99977.91
2023-04-10T18:41:01.730Z,99984.47
2023-04-10T18:43:31.484Z,99975.41
2023-04-10T18:45:59.153Z,99983.44
2023-04-10T18:48:29.328Z,99977.66
2023-04-10T18:50:59.549Z,99983.16
2023-04-10T18:53:33.711Z,99981.41
2023-04-10T18:56:01.134Z,99975.41
2023-04-10T18:58:35.635Z,99980.69
2023-04-10T19:01:04.694Z,99979.19
2023-04-10T19:03:36.234Z,99964.88
2023-04-10T19:06:04.968Z,99971.16
2023-04-10T19:08:32.630Z,99968.59
2023-04-10T19:11:04.144Z,99965.56
2023-04-10T19:13:34.453Z,99956.03
2023-04-10T19:16:06.281Z,99962.03
2023-04-10T19:18:36.546Z,99965.28
2023-04-10T19:21:09.962Z,99960.78
2023-04-10T19:23:39.742Z,99954.50
2023-04-10T19:26:09.840Z,99946.75
2023-04-10T19:28:39.436Z,99951.97
2023-04-10T19:31:09.430Z,99948.72
2023-04-10T19:33:41.995Z,99941.44
2023-04-10T19:36:12.407Z,99953.00
2023-04-10T19:38:41.045Z,99963.03
2023-04-10T19:41:13.827Z,99963.56
2023-04-10T19:43:44.048Z,99965.81
2023-04-10T19:46:26.332Z,99972.09
2023-04-10T19:48:55.016Z,99970.84
2023-04-10T19:51:22.785Z,99962.78
2023-04-10T19:53:50.950Z,99956.75
2023-04-10T19:56:18.296Z,99951.94
2023-04-10T19:58:47.102Z,99945.69
2023-04-10T20:01:18.963Z,99942.38
2023-04-10T20:03:52.458Z,99946.88
2023-04-10T20:06:23.276Z,99943.84
2023-04-10T20:08:51.242Z,99932.03
2023-04-10T20:11:18.743Z,99931.00
2023-04-10T20:13:46.678Z,99924.75
2023-04-10T20:16:17.076Z,99931.72
2023-04-10T20:18:47.050Z,99931.41
2023-04-10T20:21:14.720Z,99932.84
2023-04-10T20:23:44.568Z,99935.63
2023-04-10T20:26:14.367Z,99922.19
2023-04-10T20:28:43.125Z,99920.16
2023-04-10T20:31:11.970Z,99923.16
2023-04-10T20:33:40.843Z,99913.13
2023-04-10T20:36:10.479Z,99911.06
2023-04-10T20:38:42.941Z,99905.00
2023-04-10T20:41:12.008Z,99903.38
2023-04-10T20:43:40.322Z,99898.31
2023-04-10T20:46:10.736Z,99897.81
2023-04-10T20:48:39.342Z,99889.28
2023-04-10T20:51:13.848Z,99890.25
2023-04-10T20:53:41.425Z,99896.53
2023-04-10T20:56:09.166Z,99898.22
2023-04-10T20:58:37.924Z,99889.69
2023-04-10T21:01:06.145Z,99888.19
2023-04-10T21:03:35.671Z,99887.63
2023-04-10T21:06:06.891Z,99883.63
2023-04-10T21:08:36.772Z,99887.63
2023-04-10T21:11:07.401Z,99884.34
2023-04-10T21:13:37.893Z,99878.03
2023-04-10T21:16:07.794Z,99876.44
2023-04-10T21:18:37.852Z,99876.59
2023-04-10T21:21:12.252Z,99880.91
2023-04-10T21:23:41.173Z,99879.44
2023-04-10T21:26:11.218Z,99867.09
2023-04-10T21:28:41.118Z,99875.22
2023-04-10T21:31:14.375Z,99870.66
2023-04-10T21:33:43.001Z,99863.38
2023-04-10T21:36:12.874Z,99874.09
2023-04-10T21:38:47.314Z,99865.28
2023-04-10T21:41:19.429Z,99873.59
2023-04-10T21:43:49.343Z,99867.78
2023-04-10T21:46:22.183Z,99861.97
2023-04-10T21:48:53.371Z,99856.75
2023-04-10T21:51:25.728Z,99856.69
2023-04-10T21:53:59.536Z,99860.59
2023-04-10T21:56:29.545Z,99849.56
2023-04-10T21:58:59.254Z,99857.78
2023-04-10T22:01:26.978Z,99858.53
2023-04-10T22:03:57.856Z,99856.63
2023-04-10T22:06:26.799Z,99848.84
2023-04-10T22:08:54.791Z,99848.09
2023-04-10T22:11:33.419Z,99842.88
2023-04-10T22:14:09.368Z,99839.38
2023-04-10T22:16:42.753Z,99839.47
2023-04-10T22:19:14.774Z,99840.56
2023-04-10T22:21:42.812Z,99827.25
2023-04-10T22:24:13.437Z,99824.72
2023-04-10T22:26:42.171Z,99817.34
2023-04-10T22:29:16.961Z,99815.50
2023-04-10T22:31:45.766Z,99808.72
2023-04-10T22:34:15.537Z,99809.94
2023-04-10T22:36:45.371Z,99805.44
2023-04-10T22:39:17.240Z,99810.38
2023-04-10T22:41:48.262Z,99803.09
2023-04-10T22:44:19.578Z,99800.53
2023-04-10T22:46:55.848Z,99799.06
2023-04-10T22:49:24.744Z,99799.72
2023-04-10T22:51:53.742Z,99794.94
2023-04-10T22:54:22.432Z,99801.06
2023-04-10T22:56:50.906Z,99796.06
2023-04-10T22:59:19.060Z,99795.88
2023-04-10T23:01:47.772Z,99785.66
2023-04-10T23:04:27.859Z,99790.31
2023-04-10T23:06:59.661Z,99788.00
2023-04-10T23:09:31.109Z,99785.69
2023-04-10T23:12:01.237Z,99784.22
2023-04-10T23:14:29.086Z,99777.84
2023-04-10T23:16:57.377Z,99776.63
2023-04-10T23:19:28.709Z,99768.66
2023-04-10T23:21:55.949Z,99763.38
2023-04-10T23:24:32.152Z,99753.78
2023-04-10T23:27:12.224Z,99755.69
2023-04-10T23:29:49.385Z,99762.06
2023-04-10T23:32:18.535Z,99754.50
2023-04-10T23:34:49.572Z,99757.38
2023-04-10T23:37:17.340Z,99753.78
2023-04-10T23:39:47.627Z,99757.50
2023-04-10T23:42:15.702Z,99758.81
2023-04-10T23:44:47.287Z,99756.06
2023-04-10T23:47:16.926Z,99746.13
2023-04-10T23:49:44.328Z,99745.16
2023-04-10T23:52:15.103Z,99734.88
2023-04-10T23:54:44.938Z,99734.34
2023-04-10T23:57:18.072Z,99731.72
2023-04-10T23:59:47.241Z,99730.31
